createdAt,value
2019-04-27T00:01:19.713Z,93.31
2019-04-27T00:03:06.020Z,93.31
2019-04-27T00:05:03.330Z,92.68
2019-04-27T00:06:43.011Z,92.68
2019-04-27T00:08:28.544Z,92.46
2019-04-27T00:10:08.760Z,92.80
2019-04-27T00:12:08.284Z,92.05
2019-04-27T00:13:43.948Z,92.05
2019-04-27T00:15:31.332Z,92.78
2019-04-27T00:17:15.104Z,92.63
2019-04-27T00:19:13.202Z,92.63
2019-04-27T00:20:56.573Z,93.11
2019-04-27T00:22:36.274Z,93.11
2019-04-27T00:24:11.054Z,92.63
2019-04-27T00:25:45.779Z,92.93
2019-04-27T00:27:20.894Z,92.93
2019-04-27T00:28:56.017Z,93.10
2019-04-27T00:30:33.349Z,93.11
2019-04-27T00:32:09.436Z,92.88
2019-04-27T00:33:44.483Z,93.39
2019-04-27T00:35:33.477Z,93.39
2019-04-27T00:37:34.062Z,92.77
2019-04-27T00:39:18.012Z,92.56
2019-04-27T00:41:03.041Z,91.72
2019-04-27T00:42:37.834Z,91.59
2019-04-27T00:44:13.526Z,92.43
2019-04-27T00:45:48.127Z,92.68
2019-04-27T00:47:23.858Z,92.37
2019-04-27T00:48:58.799Z,92.01
2019-04-27T00:50:33.922Z,91.71
2019-04-27T00:52:08.879Z,92.98
2019-04-27T00:53:43.762Z,93.33
2019-04-27T00:55:18.484Z,93.33
2019-04-27T00:57:22.859Z,93.10
2019-04-27T00:59:17.644Z,92.76
2019-04-27T01:01:23.837Z,93.46
2019-04-27T01:03:03.826Z,92.17
2019-04-27T01:04:38.978Z,91.98
2019-04-27T01:06:14.911Z,91.98
2019-04-27T01:07:51.216Z,92.35
2019-04-27T01:09:26.619Z,92.66
2019-04-27T01:11:02.926Z,92.66
2019-04-27T01:12:37.816Z,92.37
2019-04-27T01:14:12.921Z,92.37
2019-04-27T01:15:47.862Z,92.82
2019-04-27T01:17:22.863Z,92.59
2019-04-27T01:18:58.964Z,92.87
2019-04-27T01:20:34.037Z,93.25
2019-04-27T01:22:08.869Z,93.19
2019-04-27T01:23:43.619Z,93.06
2019-04-27T01:25:19.869Z,93.72
2019-04-27T01:27:16.850Z,93.23
2019-04-27T01:28:59.282Z,94.14
2019-04-27T01:30:49.005Z,94.14
2019-04-27T01:32:23.876Z,94.28
2019-04-27T01:33:59.005Z,94.06
2019-04-27T01:35:33.803Z,93.81
2019-04-27T01:37:09.417Z,93.81
2019-04-27T01:38:44.313Z,93.91
2019-04-27T01:40:19.403Z,93.62
2019-04-27T01:41:54.242Z,93.70
2019-04-27T01:43:30.240Z,93.23
2019-04-27T01:45:05.593Z,93.37
2019-04-27T01:46:40.301Z,94.10
2019-04-27T01:48:23.655Z,94.01
2019-04-27T01:49:51.582Z,93.90
2019-04-27T01:51:26.254Z,93.71
2019-04-27T01:53:00.965Z,94.39
2019-04-27T01:54:35.747Z,94.47
2019-04-27T01:56:10.748Z,93.98
2019-04-27T01:57:45.682Z,94.31
2019-04-27T01:59:21.711Z,94.56
2019-04-27T02:01:19.515Z,94.66
2019-04-27T02:02:57.006Z,95.17
2019-04-27T02:04:41.753Z,94.26
2019-04-27T02:06:16.784Z,94.23
2019-04-27T02:07:51.446Z,94.17
2019-04-27T02:09:26.178Z,94.53
2019-04-27T02:11:01.035Z,94.05
2019-04-27T02:12:35.994Z,94.19
2019-04-27T02:14:11.051Z,94.07
2019-04-27T02:15:45.765Z,93.70
2019-04-27T02:17:20.638Z,93.68
2019-04-27T02:18:55.590Z,93.86
2019-04-27T02:20:30.610Z,93.87
2019-04-27T02:22:05.580Z,93.84
2019-04-27T02:23:41.671Z,94.42
2019-04-27T02:25:19.241Z,94.39
2019-04-27T02:26:54.768Z,94.28
2019-04-27T02:28:36.912Z,94.40
2019-04-27T02:30:44.136Z,94.24
2019-04-27T02:32:40.727Z,94.17
2019-04-27T02:34:19.968Z,94.80
2019-04-27T02:35:54.700Z,94.91
2019-04-27T02:37:30.397Z,94.29
2019-04-27T02:39:09.278Z,94.52
2019-04-27T02:40:59.786Z,93.62
2019-04-27T02:42:42.228Z,93.11
2019-04-27T02:44:40.447Z,93.59
2019-04-27T02:46:16.379Z,93.45
2019-04-27T02:47:51.921Z,93.44
2019-04-27T02:49:26.758Z,93.64
2019-04-27T02:51:04.168Z,93.69
2019-04-27T02:52:49.808Z,93.76
2019-04-27T02:54:23.698Z,93.79
2019-04-27T02:56:00.237Z,93.52
2019-04-27T02:57:35.184Z,93.73
2019-04-27T02:59:11.992Z,93.84
2019-04-27T03:00:49.911Z,93.37
2019-04-27T03:02:30.038Z,93.63
2019-04-27T03:04:10.004Z,93.34
2019-04-27T03:05:44.831Z,93.52
2019-04-27T03:07:20.211Z,93.09
2019-04-27T03:08:55.117Z,93.54
2019-04-27T03:10:31.785Z,93.65
2019-04-27T03:12:06.893Z,93.58
2019-04-27T03:13:51.957Z,93.65
2019-04-27T03:16:01.058Z,93.45
2019-04-27T03:17:55.066Z,93.27
2019-04-27T03:19:45.043Z,93.81
2019-04-27T03:21:26.503Z,93.34
2019-04-27T03:23:03.889Z,93.33
2019-04-27T03:24:56.299Z,93.43
2019-04-27T03:26:41.969Z,93.66
2019-04-27T03:28:19.633Z,93.43
2019-04-27T03:29:53.714Z,93.46
2019-04-27T03:31:32.346Z,93.49
2019-04-27T03:33:04.830Z,93.66
2019-04-27T03:34:41.803Z,93.56
2019-04-27T03:36:16.022Z,93.93
2019-04-27T03:37:50.971Z,93.44
2019-04-27T03:39:25.704Z,93.49
2019-04-27T03:41:00.715Z,93.39
2019-04-27T03:42:37.929Z,93.82
2019-04-27T03:44:13.295Z,93.56
2019-04-27T03:45:51.854Z,94.03
2019-04-27T03:47:24.685Z,93.95
2019-04-27T03:49:00.078Z,94.26
2019-04-27T03:50:44.029Z,94.66
2019-04-27T03:52:32.311Z,93.96
2019-04-27T03:54:24.865Z,93.82
2019-04-27T03:56:13.367Z,93.51
2019-04-27T03:57:54.896Z,93.49
2019-04-27T03:59:51.912Z,93.42
2019-04-27T04:01:26.847Z,94.08
2019-04-27T04:03:03.234Z,93.63
2019-04-27T04:04:40.538Z,94.11
2019-04-27T04:06:15.981Z,93.20
2019-04-27T04:07:52.127Z,92.47
2019-04-27T04:09:40.380Z,92.52
2019-04-27T04:11:25.598Z,93.05
2019-04-27T04:13:10.667Z,92.90
2019-04-27T04:14:44.748Z,92.76
2019-04-27T04:16:29.692Z,92.39
2019-04-27T04:18:04.474Z,92.35
2019-04-27T04:19:51.317Z,92.01
2019-04-27T04:21:15.518Z,92.71
2019-04-27T04:22:51.463Z,92.32
2019-04-27T04:24:28.550Z,91.89
2019-04-27T04:26:02.687Z,92.11
2019-04-27T04:27:40.129Z,92.30
2019-04-27T04:29:14.191Z,91.80
2019-04-27T04:30:50.201Z,91.66
2019-04-27T04:32:26.336Z,91.59
2019-04-27T04:34:02.464Z,91.49
2019-04-27T04:35:39.542Z,91.46
2019-04-27T04:37:13.455Z,91.30
2019-04-27T04:38:50.426Z,90.61
2019-04-27T04:40:36.186Z,89.64
2019-04-27T04:42:22.138Z,89.82
2019-04-27T04:44:05.438Z,89.47
2019-04-27T04:45:50.119Z,89.64
2019-04-27T04:47:49.803Z,89.00
2019-04-27T04:49:24.491Z,85.70
2019-04-27T04:51:00.247Z,81.77
2019-04-27T04:52:34.998Z,83.16
2019-04-27T04:54:09.780Z,84.08
2019-04-27T04:55:44.785Z,83.35
2019-04-27T04:57:21.925Z,83.64
2019-04-27T04:59:00.003Z,83.95
2019-04-27T05:00:34.846Z,83.75
2019-04-27T05:02:10.761Z,83.33
2019-04-27T05:03:45.913Z,84.44
2019-04-27T05:05:20.548Z,85.36
2019-04-27T05:06:55.204Z,85.02
2019-04-27T05:08:29.908Z,85.04
2019-04-27T05:10:05.544Z,85.39
2019-04-27T05:11:40.668Z,84.59
2019-04-27T05:13:15.608Z,84.13
2019-04-27T05:14:50.569Z,82.38
2019-04-27T05:16:26.695Z,80.64
2019-04-27T05:18:01.691Z,84.09
2019-04-27T05:19:38.975Z,84.09
2019-04-27T05:21:24.488Z,83.44
2019-04-27T05:22:59.520Z,83.44
2019-04-27T05:24:34.242Z,81.23
2019-04-27T05:26:09.244Z,78.70
2019-04-27T05:27:44.010Z,78.70
2019-04-27T05:29:19.233Z,75.45
2019-04-27T05:30:53.998Z,75.45
2019-04-27T05:32:29.241Z,73.03
2019-04-27T05:34:06.690Z,73.03
2019-04-27T05:35:41.034Z,62.70
2019-04-27T05:37:15.849Z,62.70
2019-04-27T05:38:50.543Z,67.51
2019-04-27T05:40:25.550Z,64.17
2019-04-27T05:42:00.294Z,61.11
2019-04-27T05:43:41.672Z,59.71
2019-04-27T05:45:48.757Z,56.07
2019-04-27T05:47:32.905Z,54.64
2019-04-27T05:49:09.676Z,46.51
2019-04-27T05:50:46.009Z,48.21
2019-04-27T05:52:30.219Z,44.76
2019-04-27T05:54:05.110Z,48.97
2019-04-27T05:55:39.822Z,43.32
2019-04-27T05:57:14.517Z,42.88
2019-04-27T05:58:51.269Z,42.99
2019-04-27T06:00:26.193Z,49.49
2019-04-27T06:02:01.145Z,41.37
2019-04-27T06:03:37.011Z,38.91
2019-04-27T06:05:12.729Z,39.72
2019-04-27T06:06:47.374Z,38.83
2019-04-27T06:08:22.050Z,42.17
2019-04-27T06:09:56.710Z,40.67
2019-04-27T06:11:31.498Z,40.58
2019-04-27T06:13:06.446Z,39.21
2019-04-27T06:14:41.353Z,37.11
2019-04-27T06:16:16.256Z,41.66
2019-04-27T06:17:51.145Z,38.88
2019-04-27T06:19:26.030Z,42.95
2019-04-27T06:21:01.944Z,40.63
2019-04-27T06:22:38.887Z,35.67
2019-04-27T06:24:13.294Z,33.98
2019-04-27T06:25:49.198Z,40.28
2019-04-27T06:27:24.320Z,37.40
2019-04-27T06:28:59.566Z,36.52
2019-04-27T06:30:34.422Z,34.68
2019-04-27T06:32:10.850Z,35.02
2019-04-27T06:33:45.675Z,34.09
2019-04-27T06:35:20.495Z,33.96
2019-04-27T06:36:55.124Z,36.17
2019-04-27T06:38:29.812Z,37.76
2019-04-27T06:40:05.754Z,38.22
2019-04-27T06:41:40.612Z,36.65
2019-04-27T06:43:16.536Z,33.95
2019-04-27T06:44:51.502Z,33.20
2019-04-27T06:46:26.604Z,32.99
2019-04-27T06:48:01.273Z,35.48
2019-04-27T06:49:37.434Z,39.69
2019-04-27T06:51:12.237Z,41.31
2019-04-27T06:52:46.965Z,37.25
2019-04-27T06:54:22.936Z,36.66
2019-04-27T06:55:58.591Z,34.60
2019-04-27T06:57:33.774Z,33.65
2019-04-27T06:59:08.879Z,32.27
2019-04-27T07:00:43.913Z,32.59
2019-04-27T07:02:20.106Z,33.94
2019-04-27T07:03:55.167Z,32.57
2019-04-27T07:05:29.807Z,28.79
2019-04-27T07:07:04.554Z,29.41
2019-04-27T07:08:40.078Z,31.17
2019-04-27T07:10:16.422Z,28.79
2019-04-27T07:11:51.443Z,33.71
2019-04-27T07:13:26.318Z,36.39
2019-04-27T07:15:01.189Z,30.11
2019-04-27T07:16:39.197Z,30.63
2019-04-27T07:18:14.290Z,30.29
2019-04-27T07:19:49.740Z,33.76
2019-04-27T07:21:24.965Z,33.11
2019-04-27T07:22:59.899Z,30.71
2019-04-27T07:24:34.731Z,30.82
2019-04-27T07:26:09.433Z,27.85
2019-04-27T07:27:45.907Z,32.88
2019-04-27T07:29:23.124Z,34.29
2019-04-27T07:30:58.641Z,28.34
2019-04-27T07:32:34.701Z,34.37
2019-04-27T07:34:10.939Z,28.05
2019-04-27T07:35:46.236Z,25.81
2019-04-27T07:37:23.707Z,24.96
2019-04-27T07:39:00.068Z,25.72
2019-04-27T07:40:34.994Z,24.49
2019-04-27T07:42:09.712Z,28.86
2019-04-27T07:43:50.109Z,33.29
2019-04-27T07:45:29.511Z,32.31
2019-04-27T07:47:36.788Z,35.08
2019-04-27T07:49:13.273Z,31.71
2019-04-27T07:50:48.650Z,31.01
2019-04-27T07:52:24.789Z,28.47
2019-04-27T07:53:59.436Z,27.37
2019-04-27T07:55:34.204Z,27.87
2019-04-27T07:57:11.283Z,28.18
2019-04-27T07:58:49.473Z,28.13
2019-04-27T08:00:24.602Z,25.69
2019-04-27T08:02:00.700Z,30.78
2019-04-27T08:03:36.809Z,28.81
2019-04-27T08:05:13.573Z,29.14
2019-04-27T08:06:49.616Z,31.03
2019-04-27T08:08:24.363Z,29.48
2019-04-27T08:10:01.654Z,31.77
2019-04-27T08:11:36.395Z,29.59
2019-04-27T08:13:11.320Z,33.52
2019-04-27T08:14:46.388Z,32.26
2019-04-27T08:16:23.657Z,32.53
2019-04-27T08:17:59.249Z,29.73
2019-04-27T08:19:34.463Z,31.06
2019-04-27T08:21:10.584Z,33.28
2019-04-27T08:22:45.468Z,31.50
2019-04-27T08:24:20.108Z,36.56
2019-04-27T08:25:55.082Z,34.17
2019-04-27T08:27:51.656Z,35.06
2019-04-27T08:29:50.799Z,32.79
2019-04-27T08:31:34.117Z,32.42
2019-04-27T08:33:09.871Z,34.58
2019-04-27T08:34:44.598Z,37.06
2019-04-27T08:36:20.892Z,41.09
2019-04-27T08:37:55.541Z,42.18
2019-04-27T08:39:30.228Z,42.18
2019-04-27T08:41:04.975Z,41.13
2019-04-27T08:42:39.676Z,38.79
2019-04-27T08:44:14.340Z,41.19
2019-04-27T08:45:49.005Z,45.36
2019-04-27T08:47:23.641Z,40.24
2019-04-27T08:48:58.754Z,43.03
2019-04-27T08:50:33.489Z,48.08
2019-04-27T08:52:09.398Z,45.97
2019-04-27T08:53:44.200Z,44.42
2019-04-27T08:55:19.628Z,44.45
2019-04-27T08:56:54.326Z,44.04
2019-04-27T08:58:28.968Z,41.35
2019-04-27T09:00:04.001Z,42.85
2019-04-27T09:01:40.337Z,43.07
2019-04-27T09:03:14.999Z,44.94
2019-04-27T09:04:49.733Z,44.80
2019-04-27T09:06:24.389Z,46.10
2019-04-27T09:08:22.354Z,45.94
2019-04-27T09:10:04.556Z,43.86
2019-04-27T09:12:10.362Z,41.46
2019-04-27T09:13:59.710Z,42.67
2019-04-27T09:15:39.503Z,45.40
2019-04-27T09:17:24.359Z,43.23
2019-04-27T09:19:03.226Z,43.19
2019-04-27T09:20:41.143Z,42.47
2019-04-27T09:22:16.716Z,46.67
2019-04-27T09:23:51.514Z,44.54
2019-04-27T09:25:26.180Z,42.47
2019-04-27T09:27:01.315Z,44.97
2019-04-27T09:28:35.950Z,42.71
2019-04-27T09:30:10.747Z,43.11
2019-04-27T09:31:45.388Z,43.58
2019-04-27T09:33:22.237Z,42.61
2019-04-27T09:34:56.936Z,43.80
2019-04-27T09:36:31.731Z,43.55
2019-04-27T09:38:07.098Z,47.10
2019-04-27T09:39:43.065Z,47.18
2019-04-27T09:41:17.732Z,46.37
2019-04-27T09:42:52.371Z,43.80
2019-04-27T09:44:27.003Z,46.02
2019-04-27T09:46:01.671Z,47.63
2019-04-27T09:47:36.856Z,50.43
2019-04-27T09:49:12.817Z,50.76
2019-04-27T09:50:47.448Z,49.17
2019-04-27T09:52:26.285Z,44.51
2019-04-27T09:53:58.413Z,47.18
2019-04-27T09:55:33.054Z,47.16
2019-04-27T09:57:07.685Z,47.46
2019-04-27T09:58:43.424Z,46.87
2019-04-27T10:00:18.579Z,47.33
2019-04-27T10:01:53.380Z,44.95
2019-04-27T10:03:28.043Z,44.43
2019-04-27T10:05:02.661Z,44.70
2019-04-27T10:06:37.978Z,44.80
2019-04-27T10:08:12.787Z,43.73
2019-04-27T10:09:47.643Z,43.32
2019-04-27T10:11:24.045Z,41.88
2019-04-27T10:12:58.698Z,44.74
2019-04-27T10:14:33.358Z,44.08
2019-04-27T10:16:08.052Z,46.96
2019-04-27T10:17:43.077Z,46.87
2019-04-27T10:19:28.130Z,50.57
2019-04-27T10:20:59.694Z,47.97
2019-04-27T10:22:40.464Z,50.22
2019-04-27T10:24:06.908Z,45.73
2019-04-27T10:25:41.592Z,45.70
2019-04-27T10:27:16.301Z,42.51
2019-04-27T10:28:50.970Z,42.98
2019-04-27T10:30:25.857Z,43.80
2019-04-27T10:32:00.496Z,42.08
2019-04-27T10:33:36.765Z,41.48
2019-04-27T10:35:11.785Z,41.04
2019-04-27T10:36:46.410Z,41.37
2019-04-27T10:38:21.095Z,43.38
2019-04-27T10:39:56.082Z,41.98
2019-04-27T10:41:30.899Z,41.51
2019-04-27T10:43:06.342Z,39.86
2019-04-27T10:44:41.082Z,40.16
2019-04-27T10:46:15.744Z,40.46
2019-04-27T10:47:51.313Z,40.22
2019-04-27T10:49:25.964Z,39.98
2019-04-27T10:51:00.620Z,39.16
2019-04-27T10:52:35.322Z,41.70
2019-04-27T10:54:10.366Z,40.75
2019-04-27T10:55:46.429Z,44.08
2019-04-27T10:57:21.242Z,42.75
2019-04-27T10:58:55.911Z,43.89
2019-04-27T11:00:36.780Z,43.55
2019-04-27T11:02:11.668Z,45.23
2019-04-27T11:03:58.325Z,43.99
2019-04-27T11:05:39.292Z,44.05
2019-04-27T11:07:15.962Z,44.26
2019-04-27T11:08:51.957Z,45.82
2019-04-27T11:10:26.697Z,46.72
2019-04-27T11:12:01.416Z,47.69
2019-04-27T11:13:38.283Z,46.66
2019-04-27T11:15:13.119Z,46.84
2019-04-27T11:16:48.022Z,46.19
2019-04-27T11:18:22.668Z,46.56
2019-04-27T11:19:57.331Z,46.35
2019-04-27T11:21:32.123Z,47.82
2019-04-27T11:23:12.016Z,46.70
2019-04-27T11:24:45.813Z,45.98
2019-04-27T11:26:20.616Z,47.58
2019-04-27T11:27:55.946Z,46.97
2019-04-27T11:29:31.693Z,44.64
2019-04-27T11:31:07.231Z,44.54
2019-04-27T11:32:41.949Z,43.71
2019-04-27T11:34:16.854Z,43.78
2019-04-27T11:35:57.967Z,45.53
2019-04-27T11:37:35.680Z,45.60
2019-04-27T11:39:13.028Z,45.03
2019-04-27T11:40:47.742Z,46.59
2019-04-27T11:42:22.406Z,46.37
2019-04-27T11:43:57.033Z,48.35
2019-04-27T11:45:31.754Z,47.11
2019-04-27T11:47:06.424Z,47.01
2019-04-27T11:48:41.143Z,47.36
2019-04-27T11:50:17.439Z,47.20
2019-04-27T11:51:52.168Z,48.52
2019-04-27T11:53:26.822Z,46.61
2019-04-27T11:55:01.469Z,48.20
2019-04-27T11:56:36.389Z,47.12
2019-04-27T11:58:11.077Z,45.16
2019-04-27T11:59:45.713Z,44.74
2019-04-27T12:01:20.443Z,46.64
2019-04-27T12:02:56.750Z,45.06
2019-04-27T12:04:31.474Z,43.86
2019-04-27T12:06:06.174Z,44.49
2019-04-27T12:07:40.877Z,44.25
2019-04-27T12:09:15.547Z,45.27
2019-04-27T12:10:50.197Z,46.73
2019-04-27T12:12:26.213Z,47.26
2019-04-27T12:14:01.014Z,48.34
2019-04-27T12:15:36.213Z,49.64
2019-04-27T12:17:11.034Z,48.96
2019-04-27T12:18:48.871Z,49.01
2019-04-27T12:20:22.762Z,48.53
2019-04-27T12:21:57.505Z,49.32
2019-04-27T12:23:35.628Z,49.59
2019-04-27T12:25:09.038Z,51.67
2019-04-27T12:27:02.642Z,52.26
2019-04-27T12:28:43.335Z,52.31
2019-04-27T12:30:26.146Z,53.43
2019-04-27T12:32:05.623Z,54.17
2019-04-27T12:33:40.505Z,53.38
2019-04-27T12:35:16.666Z,55.33
2019-04-27T12:36:53.374Z,56.10
2019-04-27T12:38:29.309Z,56.27
2019-04-27T12:40:05.935Z,56.69
2019-04-27T12:41:40.755Z,56.13
2019-04-27T12:43:16.484Z,55.71
2019-04-27T12:44:51.178Z,55.82
2019-04-27T12:46:25.929Z,54.77
2019-04-27T12:48:00.649Z,53.41
2019-04-27T12:49:36.225Z,53.58
2019-04-27T12:51:11.101Z,54.19
2019-04-27T12:52:47.665Z,54.81
2019-04-27T12:54:31.582Z,55.67
2019-04-27T12:56:12.964Z,56.68
2019-04-27T12:57:57.118Z,58.17
2019-04-27T13:00:06.827Z,58.21
2019-04-27T13:01:41.465Z,58.53
2019-04-27T13:03:16.178Z,58.88
2019-04-27T13:04:50.770Z,59.94
2019-04-27T13:06:26.274Z,59.49
2019-04-27T13:08:00.933Z,59.25
2019-04-27T13:09:36.060Z,59.45
2019-04-27T13:11:10.764Z,59.34
2019-04-27T13:12:46.109Z,59.45
2019-04-27T13:14:20.998Z,59.06
2019-04-27T13:15:56.340Z,58.88
2019-04-27T13:17:32.227Z,61.10
2019-04-27T13:19:07.050Z,60.94
2019-04-27T13:20:41.683Z,62.83
2019-04-27T13:22:16.621Z,62.57
2019-04-27T13:24:03.668Z,63.70
2019-04-27T13:25:27.919Z,64.92
2019-04-27T13:27:02.633Z,65.72
2019-04-27T13:28:37.272Z,67.79
2019-04-27T13:30:12.617Z,69.30
2019-04-27T13:31:47.505Z,72.19
2019-04-27T13:33:22.154Z,74.23
2019-04-27T13:34:56.845Z,75.42
2019-04-27T13:36:33.146Z,75.69
2019-04-27T13:38:08.809Z,76.17
2019-04-27T13:39:43.528Z,77.71
2019-04-27T13:41:27.851Z,76.67
2019-04-27T13:43:07.597Z,77.00
2019-04-27T13:44:41.939Z,78.82
2019-04-27T13:46:34.655Z,77.95
2019-04-27T13:48:43.726Z,76.50
2019-04-27T13:50:23.825Z,79.12
2019-04-27T13:52:02.437Z,78.41
2019-04-27T13:53:37.109Z,78.49
2019-04-27T13:55:11.830Z,78.72
2019-04-27T13:56:47.673Z,77.76
2019-04-27T13:58:22.446Z,77.72
2019-04-27T13:59:57.083Z,78.74
2019-04-27T14:01:31.913Z,78.68
2019-04-27T14:03:06.694Z,78.52
2019-04-27T14:04:41.347Z,80.03
2019-04-27T14:06:15.996Z,78.79
2019-04-27T14:07:50.635Z,80.39
2019-04-27T14:09:25.291Z,79.95
2019-04-27T14:11:01.200Z,78.81
2019-04-27T14:12:36.073Z,81.06
2019-04-27T14:14:10.791Z,80.34
2019-04-27T14:15:45.448Z,79.75
2019-04-27T14:17:20.190Z,80.85
2019-04-27T14:18:54.875Z,78.87
2019-04-27T14:20:29.514Z,79.30
2019-04-27T14:22:04.246Z,79.66
2019-04-27T14:23:38.911Z,79.09
2019-04-27T14:25:13.756Z,80.07
2019-04-27T14:26:48.668Z,79.76
2019-04-27T14:28:23.348Z,81.66
2019-04-27T14:29:59.539Z,81.96
2019-04-27T14:31:34.433Z,81.79
2019-04-27T14:33:09.174Z,80.75
2019-04-27T14:34:43.817Z,80.42
2019-04-27T14:36:18.460Z,81.19
2019-04-27T14:37:53.122Z,81.85
2019-04-27T14:39:28.579Z,80.23
2019-04-27T14:41:03.748Z,79.15
2019-04-27T14:42:38.404Z,78.60
2019-04-27T14:44:13.078Z,80.73
2019-04-27T14:45:48.567Z,77.80
2019-04-27T14:47:23.276Z,79.32
2019-04-27T14:48:57.982Z,80.12
2019-04-27T14:50:32.679Z,80.12
2019-04-27T14:52:07.396Z,79.12
2019-04-27T14:53:42.081Z,76.09
2019-04-27T14:55:16.724Z,77.36
2019-04-27T14:56:51.383Z,77.56
2019-04-27T14:58:26.039Z,77.24
2019-04-27T15:00:01.047Z,78.11
2019-04-27T15:01:37.589Z,77.96
2019-04-27T15:03:12.132Z,77.82
2019-04-27T15:04:47.327Z,78.96
2019-04-27T15:06:22.156Z,80.49
2019-04-27T15:07:56.877Z,79.93
2019-04-27T15:09:31.525Z,84.34
2019-04-27T15:11:10.573Z,82.52
2019-04-27T15:12:42.552Z,82.59
2019-04-27T15:14:20.659Z,82.12
2019-04-27T15:15:53.570Z,82.12
2019-04-27T15:17:29.554Z,82.39
2019-04-27T15:19:08.269Z,82.39
2019-04-27T15:20:46.307Z,81.25
2019-04-27T15:22:25.105Z,81.53
2019-04-27T15:24:02.440Z,82.88
2019-04-27T15:25:43.601Z,82.88
2019-04-27T15:27:14.334Z,83.98
2019-04-27T15:28:51.186Z,82.77
2019-04-27T15:30:57.117Z,82.77
2019-04-27T15:32:43.971Z,83.61
2019-04-27T15:34:48.225Z,83.93
2019-04-27T15:36:39.496Z,85.21
2019-04-27T15:38:18.776Z,84.36
2019-04-27T15:40:24.866Z,84.36
2019-04-27T15:42:07.860Z,84.42
2019-04-27T15:43:38.845Z,84.42
2019-04-27T15:45:15.971Z,84.10
2019-04-27T15:46:51.197Z,84.10
2019-04-27T15:48:30.655Z,84.15
2019-04-27T15:50:02.224Z,84.43
2019-04-27T15:51:38.246Z,84.43
2019-04-27T15:53:14.069Z,83.17
2019-04-27T15:54:48.827Z,83.17
2019-04-27T15:56:23.489Z,81.52
2019-04-27T15:57:58.137Z,81.52
2019-04-27T15:59:37.723Z,83.78
2019-04-27T16:01:11.938Z,83.78
2019-04-27T16:02:49.348Z,84.05
2019-04-27T16:04:24.689Z,84.07
2019-04-27T16:06:03.177Z,84.79
2019-04-27T16:07:35.889Z,84.79
2019-04-27T16:09:15.995Z,84.64
2019-04-27T16:10:50.260Z,84.64
2019-04-27T16:12:24.916Z,84.87
2019-04-27T16:14:02.996Z,85.57
2019-04-27T16:15:35.965Z,85.13
2019-04-27T16:17:11.630Z,85.23
2019-04-27T16:18:46.361Z,85.23
2019-04-27T16:20:29.254Z,84.91
2019-04-27T16:21:59.139Z,83.26
2019-04-27T16:23:40.082Z,83.26
2019-04-27T16:25:10.250Z,84.63
2019-04-27T16:26:46.359Z,83.80
2019-04-27T16:28:21.310Z,83.80
2019-04-27T16:29:55.970Z,84.89
2019-04-27T16:31:32.883Z,84.51
2019-04-27T16:33:08.622Z,85.16
2019-04-27T16:34:44.733Z,85.16
2019-04-27T16:36:20.436Z,82.90
2019-04-27T16:38:14.126Z,83.58
2019-04-27T16:39:49.555Z,83.58
2019-04-27T16:41:24.263Z,84.00
2019-04-27T16:42:58.998Z,83.46
2019-04-27T16:44:33.647Z,83.46
2019-04-27T16:46:08.905Z,84.06
2019-04-27T16:47:44.003Z,82.67
2019-04-27T16:49:18.832Z,83.03
2019-04-27T16:50:55.210Z,82.99
2019-04-27T16:52:30.029Z,82.99
2019-04-27T16:54:04.745Z,84.78
2019-04-27T16:55:39.404Z,84.78
2019-04-27T16:57:14.057Z,83.52
2019-04-27T16:58:56.282Z,83.68
2019-04-27T17:00:26.576Z,83.68
2019-04-27T17:02:01.712Z,84.96
2019-04-27T17:03:36.651Z,85.27
2019-04-27T17:05:11.538Z,85.53
2019-04-27T17:06:46.430Z,85.50
2019-04-27T17:08:26.347Z,85.50
2019-04-27T17:09:59.501Z,85.19
2019-04-27T17:11:34.364Z,84.94
2019-04-27T17:13:14.310Z,85.14
2019-04-27T17:15:18.990Z,85.15
2019-04-27T17:17:08.106Z,84.02
2019-04-27T17:18:52.795Z,85.10
2019-04-27T17:20:28.051Z,85.10
2019-04-27T17:22:03.128Z,84.66
2019-04-27T17:23:38.843Z,84.19
2019-04-27T17:25:15.367Z,84.64
2019-04-27T17:26:50.009Z,85.83
2019-04-27T17:28:25.692Z,84.09
2019-04-27T17:30:01.558Z,84.30
2019-04-27T17:31:38.993Z,85.54
2019-04-27T17:33:21.168Z,85.54
2019-04-27T17:35:02.076Z,85.84
2019-04-27T17:36:32.260Z,85.46
2019-04-27T17:38:10.473Z,86.15
2019-04-27T17:39:43.401Z,85.48
2019-04-27T17:41:18.435Z,86.26
2019-04-27T17:42:53.151Z,86.37
2019-04-27T17:44:28.807Z,86.37
2019-04-27T17:46:07.370Z,86.47
2019-04-27T17:47:40.068Z,86.49
2019-04-27T17:49:14.697Z,86.55
2019-04-27T17:50:49.361Z,86.55
2019-04-27T17:52:24.005Z,86.77
2019-04-27T17:53:58.781Z,87.49
2019-04-27T17:55:33.471Z,87.49
2019-04-27T17:57:10.362Z,88.37
2019-04-27T17:58:44.541Z,87.93
2019-04-27T18:00:19.697Z,87.34
2019-04-27T18:02:00.841Z,87.88
2019-04-27T18:03:30.909Z,88.35
2019-04-27T18:05:09.599Z,88.35
2019-04-27T18:06:42.718Z,88.83
2019-04-27T18:08:21.215Z,88.04
2019-04-27T18:09:53.862Z,87.09
2019-04-27T18:11:28.889Z,87.09
2019-04-27T18:13:03.612Z,87.34
2019-04-27T18:14:41.192Z,87.79
2019-04-27T18:16:14.610Z,89.11
2019-04-27T18:17:52.198Z,89.11
2019-04-27T18:19:44.168Z,88.16
2019-04-27T18:21:19.710Z,89.20
2019-04-27T18:23:00.340Z,88.19
2019-04-27T18:24:45.447Z,87.55
2019-04-27T18:26:30.662Z,87.39
2019-04-27T18:28:26.042Z,87.96
2019-04-27T18:30:28.854Z,88.19
2019-04-27T18:32:03.555Z,88.19
2019-04-27T18:33:38.333Z,87.41
2019-04-27T18:35:13.084Z,88.31
2019-04-27T18:36:47.733Z,87.60
2019-04-27T18:38:22.375Z,88.04
2019-04-27T18:39:58.458Z,87.13
2019-04-27T18:41:33.288Z,87.13
2019-04-27T18:43:12.296Z,87.53
2019-04-27T18:44:44.400Z,87.53
2019-04-27T18:46:24.521Z,87.32
2019-04-27T18:48:01.098Z,87.16
2019-04-27T18:49:54.930Z,87.16
2019-04-27T18:51:38.413Z,86.61
2019-04-27T18:53:24.327Z,86.05
2019-04-27T18:54:59.147Z,87.95
2019-04-27T18:56:38.402Z,87.74
2019-04-27T18:58:10.305Z,87.60
2019-04-27T18:59:44.957Z,87.13
2019-04-27T19:01:19.685Z,86.82
2019-04-27T19:02:54.349Z,86.82
2019-04-27T19:04:29.007Z,88.35
2019-04-27T19:06:03.833Z,88.35
2019-04-27T19:07:38.543Z,88.78
2019-04-27T19:09:13.336Z,88.34
2019-04-27T19:10:48.237Z,88.34
2019-04-27T19:12:22.951Z,88.82
2019-04-27T19:13:59.028Z,89.99
2019-04-27T19:15:33.815Z,89.99
2019-04-27T19:17:08.474Z,89.96
2019-04-27T19:18:43.211Z,89.64
2019-04-27T19:20:18.662Z,89.39
2019-04-27T19:21:54.617Z,89.39
2019-04-27T19:23:29.637Z,88.79
2019-04-27T19:25:05.818Z,90.48
2019-04-27T19:26:48.561Z,89.77
2019-04-27T19:28:54.214Z,89.62
2019-04-27T19:30:33.300Z,89.32
2019-04-27T19:32:08.162Z,89.74
2019-04-27T19:33:42.858Z,87.63
2019-04-27T19:35:19.707Z,88.72
2019-04-27T19:36:53.847Z,88.62
2019-04-27T19:38:28.921Z,88.81
2019-04-27T19:40:03.850Z,89.47
2019-04-27T19:41:38.779Z,89.47
2019-04-27T19:43:13.519Z,89.23
2019-04-27T19:44:48.217Z,89.82
2019-04-27T19:46:22.907Z,89.62
2019-04-27T19:47:57.542Z,90.14
2019-04-27T19:49:32.336Z,90.01
2019-04-27T19:51:08.958Z,90.29
2019-04-27T19:52:43.378Z,89.58
2019-04-27T19:54:18.032Z,89.56
2019-04-27T19:56:03.018Z,89.46
2019-04-27T19:57:39.332Z,89.40
2019-04-27T19:59:19.892Z,88.51
2019-04-27T20:01:11.117Z,89.13
2019-04-27T20:02:38.022Z,89.19
2019-04-27T20:04:25.743Z,88.79
2019-04-27T20:06:00.416Z,87.88
2019-04-27T20:07:35.216Z,88.54
2019-04-27T20:09:19.133Z,88.25
2019-04-27T20:10:54.293Z,89.63
2019-04-27T20:12:31.152Z,89.69
2019-04-27T20:14:05.588Z,89.85
2019-04-27T20:15:40.686Z,89.41
2019-04-27T20:17:16.594Z,88.96
2019-04-27T20:18:52.312Z,87.77
2019-04-27T20:20:26.951Z,87.84
2019-04-27T20:22:01.622Z,87.99
2019-04-27T20:23:45.940Z,88.61
2019-04-27T20:25:21.548Z,87.78
2019-04-27T20:26:56.193Z,88.16
2019-04-27T20:28:31.455Z,88.11
2019-04-27T20:30:08.555Z,88.66
2019-04-27T20:31:44.360Z,88.47
2019-04-27T20:33:20.966Z,88.30
2019-04-27T20:34:55.417Z,88.17
2019-04-27T20:36:31.345Z,88.53
2019-04-27T20:38:06.109Z,88.45
2019-04-27T20:39:42.641Z,88.45
2019-04-27T20:41:17.134Z,89.46
2019-04-27T20:42:51.816Z,88.73
2019-04-27T20:44:26.767Z,89.33
2019-04-27T20:46:01.395Z,89.28
2019-04-27T20:47:36.039Z,88.74
2019-04-27T20:49:19.139Z,88.43
2019-04-27T20:50:53.765Z,88.33
2019-04-27T20:52:36.921Z,88.06
2019-04-27T20:54:11.696Z,87.44
2019-04-27T20:55:46.350Z,88.73